McGregor, Canada
Current Conditions -  °F | °C
As of 4:00 AM on Saturday 01 Nov 2014 (Local Time) from CYQG Reporting Station
Light Snow Light Snow  
Wind Chill: 24°   Ceiling: 1400
Heat Index: 36°   Visibility: 15mi
Dew Point: 32°   Wind: 22mph
Humidity: 87%   Direction: 360°N
Pressure: 30.12"   Gusts: 38mph
Location:  42.15°N, 82.97°W
Report Text: CYQG 010800Z 36019G33KT 15SM -SN OVC014 02/M00 A3012 RMK SC8 SLP206
Loading
Personal Weather Stations






























Interactive Weather Map
Tropical Storm Tracking
New forecast layout! Learn more

10-Day Weather Forecast

Advertisements
Track Severe Weather on mobile